sensor_id;sensor_type;location;lat;lon;timestamp;P1;durP1;ratioP1;P2;durP2;ratioP2
44165;SDS011;30476;53.468;9.826;2022-08-14T00:02:23;2.80;;;2.70;;
44165;SDS011;30476;53.468;9.826;2022-08-14T00:04:49;4.17;;;3.87;;
44165;SDS011;30476;53.468;9.826;2022-08-14T00:07:15;3.50;;;3.13;;
44165;SDS011;30476;53.468;9.826;2022-08-14T00:09:43;3.10;;;3.00;;
44165;SDS011;30476;53.468;9.826;2022-08-14T00:12:10;2.87;;;2.60;;
44165;SDS011;30476;53.468;9.826;2022-08-14T00:14:36;3.23;;;2.90;;
44165;SDS011;30476;53.468;9.826;2022-08-14T00:17:03;5.37;;;3.40;;
44165;SDS011;30476;53.468;9.826;2022-08-14T00:19:29;3.20;;;2.80;;
44165;SDS011;30476;53.468;9.826;2022-08-14T00:21:55;3.23;;;3.03;;
44165;SDS011;30476;53.468;9.826;2022-08-14T00:24:21;3.43;;;3.13;;
44165;SDS011;30476;53.468;9.826;2022-08-14T00:26:47;3.23;;;3.00;;
44165;SDS011;30476;53.468;9.826;2022-08-14T00:29:13;6.30;;;3.50;;
44165;SDS011;30476;53.468;9.826;2022-08-14T00:31:39;3.40;;;3.13;;
44165;SDS011;30476;53.468;9.826;2022-08-14T00:34:05;3.43;;;3.23;;
44165;SDS011;30476;53.468;9.826;2022-08-14T00:36:31;2.90;;;2.80;;
44165;SDS011;30476;53.468;9.826;2022-08-14T00:38:57;3.00;;;2.80;;
44165;SDS011;30476;53.468;9.826;2022-08-14T00:41:23;4.90;;;2.80;;
44165;SDS011;30476;53.468;9.826;2022-08-14T00:43:55;3.57;;;3.23;;
44165;SDS011;30476;53.468;9.826;2022-08-14T00:46:22;3.90;;;3.37;;
44165;SDS011;30476;53.468;9.826;2022-08-14T00:48:47;2.87;;;2.77;;
44165;SDS011;30476;53.468;9.826;2022-08-14T00:51:13;2.60;;;2.43;;
44165;SDS011;30476;53.468;9.826;2022-08-14T00:53:39;4.20;;;3.53;;
44165;SDS011;30476;53.468;9.826;2022-08-14T00:56:06;3.97;;;3.13;;
44165;SDS011;30476;53.468;9.826;2022-08-14T00:58:33;3.63;;;3.40;;
44165;SDS011;30476;53.468;9.826;2022-08-14T01:01:05;3.70;;;3.00;;
44165;SDS011;30476;53.468;9.826;2022-08-14T01:03:33;3.50;;;3.30;;
44165;SDS011;30476;53.468;9.826;2022-08-14T01:06:02;3.83;;;3.53;;
44165;SDS011;30476;53.468;9.826;2022-08-14T01:08:29;3.00;;;2.80;;
44165;SDS011;30476;53.468;9.826;2022-08-14T01:10:56;3.03;;;2.90;;
44165;SDS011;30476;53.468;9.826;2022-08-14T01:13:24;3.43;;;3.13;;
44165;SDS011;30476;53.468;9.826;2022-08-14T01:16:00;3.03;;;2.83;;
44165;SDS011;30476;53.468;9.826;2022-08-14T01:18:27;2.97;;;2.77;;
44165;SDS011;30476;53.468;9.826;2022-08-14T01:21:13;3.10;;;3.00;;
44165;SDS011;30476;53.468;9.826;2022-08-14T01:23:42;3.53;;;2.73;;
44165;SDS011;30476;53.468;9.826;2022-08-14T01:26:09;3.60;;;3.30;;
44165;SDS011;30476;53.468;9.826;2022-08-14T01:28:37;3.73;;;3.43;;
44165;SDS011;30476;53.468;9.826;2022-08-14T01:31:04;3.60;;;3.40;;
44165;SDS011;30476;53.468;9.826;2022-08-14T01:33:33;3.37;;;3.17;;
44165;SDS011;30476;53.468;9.826;2022-08-14T01:36:05;2.80;;;2.70;;
44165;SDS011;30476;53.468;9.826;2022-08-14T01:38:33;3.67;;;3.47;;
44165;SDS011;30476;53.468;9.826;2022-08-14T01:41:00;3.57;;;3.33;;
44165;SDS011;30476;53.468;9.826;2022-08-14T01:43:26;3.67;;;3.30;;
44165;SDS011;30476;53.468;9.826;2022-08-14T01:45:56;5.70;;;3.90;;
44165;SDS011;30476;53.468;9.826;2022-08-14T01:48:25;2.90;;;2.67;;
44165;SDS011;30476;53.468;9.826;2022-08-14T01:50:57;3.60;;;3.50;;
44165;SDS011;30476;53.468;9.826;2022-08-14T01:53:25;4.13;;;3.83;;
44165;SDS011;30476;53.468;9.826;2022-08-14T01:55:55;3.57;;;2.90;;
44165;SDS011;30476;53.468;9.826;2022-08-14T01:58:26;3.23;;;3.13;;
44165;SDS011;30476;53.468;9.826;2022-08-14T02:00:53;3.23;;;3.13;;
44165;SDS011;30476;53.468;9.826;2022-08-14T02:03:21;3.30;;;3.10;;
44165;SDS011;30476;53.468;9.826;2022-08-14T02:05:48;3.57;;;3.37;;
44165;SDS011;30476;53.468;9.826;2022-08-14T02:08:14;4.23;;;3.47;;
44165;SDS011;30476;53.468;9.826;2022-08-14T02:10:40;3.33;;;3.23;;
44165;SDS011;30476;53.468;9.826;2022-08-14T02:13:07;3.20;;;2.90;;
44165;SDS011;30476;53.468;9.826;2022-08-14T02:15:35;3.50;;;3.30;;
44165;SDS011;30476;53.468;9.826;2022-08-14T02:18:02;3.67;;;3.37;;
44165;SDS011;30476;53.468;9.826;2022-08-14T02:20:31;3.40;;;3.30;;
44165;SDS011;30476;53.468;9.826;2022-08-14T02:22:58;3.33;;;3.13;;
44165;SDS011;30476;53.468;9.826;2022-08-14T02:25:25;3.53;;;3.10;;
44165;SDS011;30476;53.468;9.826;2022-08-14T02:27:51;3.27;;;3.07;;
44165;SDS011;30476;53.468;9.826;2022-08-14T02:30:21;4.33;;;3.50;;
44165;SDS011;30476;53.468;9.826;2022-08-14T02:32:50;3.47;;;3.27;;
44165;SDS011;30476;53.468;9.826;2022-08-14T02:35:16;3.47;;;3.27;;
44165;SDS011;30476;53.468;9.826;2022-08-14T02:37:43;4.40;;;3.00;;
44165;SDS011;30476;53.468;9.826;2022-08-14T02:40:10;3.67;;;3.57;;
44165;SDS011;30476;53.468;9.826;2022-08-14T02:42:36;3.80;;;3.20;;
44165;SDS011;30476;53.468;9.826;2022-08-14T02:45:03;3.63;;;3.33;;
44165;SDS011;30476;53.468;9.826;2022-08-14T02:47:30;3.60;;;3.13;;
44165;SDS011;30476;53.468;9.826;2022-08-14T02:49:56;3.83;;;3.53;;
44165;SDS011;30476;53.468;9.826;2022-08-14T02:52:22;3.20;;;3.10;;
44165;SDS011;30476;53.468;9.826;2022-08-14T02:54:50;3.47;;;3.17;;
44165;SDS011;30476;53.468;9.826;2022-08-14T02:57:16;3.40;;;3.20;;
44165;SDS011;30476;53.468;9.826;2022-08-14T02:59:43;3.00;;;2.80;;
44165;SDS011;30476;53.468;9.826;2022-08-14T03:02:09;3.10;;;2.90;;
44165;SDS011;30476;53.468;9.826;2022-08-14T03:04:37;3.50;;;3.40;;
44165;SDS011;30476;53.468;9.826;2022-08-14T03:07:03;3.00;;;2.90;;
44165;SDS011;30476;53.468;9.826;2022-08-14T03:09:29;4.10;;;3.80;;
44165;SDS011;30476;53.468;9.826;2022-08-14T03:11:55;3.57;;;3.37;;
44165;SDS011;30476;53.468;9.826;2022-08-14T03:14:22;3.57;;;3.30;;
44165;SDS011;30476;53.468;9.826;2022-08-14T03:16:50;3.33;;;3.13;;
44165;SDS011;30476;53.468;9.826;2022-08-14T03:19:16;3.33;;;3.13;;
44165;SDS011;30476;53.468;9.826;2022-08-14T03:21:42;3.80;;;3.57;;
44165;SDS011;30476;53.468;9.826;2022-08-14T03:24:08;4.53;;;3.63;;
44165;SDS011;30476;53.468;9.826;2022-08-14T03:26:36;3.93;;;3.63;;
44165;SDS011;30476;53.468;9.826;2022-08-14T03:29:04;3.97;;;3.30;;
44165;SDS011;30476;53.468;9.826;2022-08-14T03:31:31;4.20;;;3.90;;
44165;SDS011;30476;53.468;9.826;2022-08-14T03:33:57;3.53;;;3.37;;
44165;SDS011;30476;53.468;9.826;2022-08-14T03:36:23;3.57;;;3.37;;
44165;SDS011;30476;53.468;9.826;2022-08-14T03:38:50;3.83;;;3.40;;
44165;SDS011;30476;53.468;9.826;2022-08-14T03:43:46;3.50;;;3.40;;
44165;SDS011;30476;53.468;9.826;2022-08-14T03:46:14;3.50;;;3.30;;
44165;SDS011;30476;53.468;9.826;2022-08-14T03:48:41;3.90;;;3.60;;
44165;SDS011;30476;53.468;9.826;2022-08-14T03:51:08;3.90;;;3.70;;
44165;SDS011;30476;53.468;9.826;2022-08-14T03:53:35;3.50;;;3.30;;
44165;SDS011;30476;53.468;9.826;2022-08-14T03:56:03;3.83;;;3.50;;
44165;SDS011;30476;53.468;9.826;2022-08-14T03:58:30;3.47;;;3.23;;
44165;SDS011;30476;53.468;9.826;2022-08-14T04:00:57;4.90;;;4.00;;
44165;SDS011;30476;53.468;9.826;2022-08-14T04:03:24;3.80;;;3.60;;
44165;SDS011;30476;53.468;9.826;2022-08-14T04:05:51;3.33;;;3.13;;
44165;SDS011;30476;53.468;9.826;2022-08-14T04:08:17;5.37;;;3.40;;
44165;SDS011;30476;53.468;9.826;2022-08-14T04:10:44;4.33;;;4.00;;
44165;SDS011;30476;53.468;9.826;2022-08-14T04:13:11;3.43;;;3.23;;
44165;SDS011;30476;53.468;9.826;2022-08-14T04:15:41;3.47;;;3.27;;
44165;SDS011;30476;53.468;9.826;2022-08-14T04:18:06;4.13;;;3.93;;
44165;SDS011;30476;53.468;9.826;2022-08-14T04:20:36;4.90;;;3.67;;
44165;SDS011;30476;53.468;9.826;2022-08-14T04:23:03;3.60;;;3.40;;
44165;SDS011;30476;53.468;9.826;2022-08-14T04:25:31;4.00;;;3.70;;
44165;SDS011;30476;53.468;9.826;2022-08-14T04:27:58;3.70;;;3.43;;
44165;SDS011;30476;53.468;9.826;2022-08-14T04:30:25;3.20;;;3.00;;
44165;SDS011;30476;53.468;9.826;2022-08-14T04:32:55;4.33;;;3.60;;
44165;SDS011;30476;53.468;9.826;2022-08-14T04:35:21;3.50;;;3.17;;
44165;SDS011;30476;53.468;9.826;2022-08-14T04:37:47;3.97;;;3.70;;
44165;SDS011;30476;53.468;9.826;2022-08-14T04:40:32;3.27;;;2.90;;
44165;SDS011;30476;53.468;9.826;2022-08-14T04:43:17;3.73;;;3.37;;
44165;SDS011;30476;53.468;9.826;2022-08-14T04:46:07;3.87;;;3.53;;
44165;SDS011;30476;53.468;9.826;2022-08-14T04:48:35;7.63;;;3.40;;
44165;SDS011;30476;53.468;9.826;2022-08-14T04:51:03;3.53;;;3.33;;
44165;SDS011;30476;53.468;9.826;2022-08-14T04:53:30;3.40;;;3.10;;
44165;SDS011;30476;53.468;9.826;2022-08-14T04:55:57;4.20;;;4.00;;
44165;SDS011;30476;53.468;9.826;2022-08-14T04:58:24;7.93;;;2.60;;
44165;SDS011;30476;53.468;9.826;2022-08-14T05:00:52;3.10;;;2.90;;
44165;SDS011;30476;53.468;9.826;2022-08-14T05:03:20;3.47;;;3.27;;
44165;SDS011;30476;53.468;9.826;2022-08-14T05:05:47;2.73;;;2.63;;
44165;SDS011;30476;53.468;9.826;2022-08-14T05:08:17;3.07;;;2.87;;
44165;SDS011;30476;53.468;9.826;2022-08-14T05:10:45;3.63;;;3.30;;
44165;SDS011;30476;53.468;9.826;2022-08-14T05:13:16;5.53;;;2.80;;
44165;SDS011;30476;53.468;9.826;2022-08-14T05:15:43;4.40;;;4.10;;
44165;SDS011;30476;53.468;9.826;2022-08-14T05:18:12;3.10;;;3.00;;
44165;SDS011;30476;53.468;9.826;2022-08-14T05:20:40;3.50;;;3.40;;
44165;SDS011;30476;53.468;9.826;2022-08-14T05:23:30;4.13;;;3.80;;
44165;SDS011;30476;53.468;9.826;2022-08-14T05:25:57;3.30;;;3.10;;
44165;SDS011;30476;53.468;9.826;2022-08-14T05:28:27;4.23;;;2.80;;
44165;SDS011;30476;53.468;9.826;2022-08-14T05:30:56;4.67;;;4.33;;
44165;SDS011;30476;53.468;9.826;2022-08-14T05:33:25;4.50;;;2.90;;
44165;SDS011;30476;53.468;9.826;2022-08-14T05:35:53;4.07;;;3.87;;
44165;SDS011;30476;53.468;9.826;2022-08-14T05:38:26;3.40;;;3.10;;
44165;SDS011;30476;53.468;9.826;2022-08-14T05:41:02;4.87;;;4.67;;
44165;SDS011;30476;53.468;9.826;2022-08-14T05:43:29;4.43;;;3.03;;
44165;SDS011;30476;53.468;9.826;2022-08-14T05:45:55;4.10;;;3.07;;
44165;SDS011;30476;53.468;9.826;2022-08-14T05:48:22;3.33;;;3.13;;
44165;SDS011;30476;53.468;9.826;2022-08-14T05:50:49;3.60;;;2.87;;
44165;SDS011;30476;53.468;9.826;2022-08-14T05:53:15;4.87;;;2.80;;
44165;SDS011;30476;53.468;9.826;2022-08-14T05:55:41;3.17;;;2.87;;
44165;SDS011;30476;53.468;9.826;2022-08-14T05:58:08;3.50;;;3.30;;
44165;SDS011;30476;53.468;9.826;2022-08-14T06:00:35;3.00;;;2.90;;
44165;SDS011;30476;53.468;9.826;2022-08-14T06:03:07;3.80;;;3.03;;
44165;SDS011;30476;53.468;9.826;2022-08-14T06:05:41;3.83;;;3.53;;
44165;SDS011;30476;53.468;9.826;2022-08-14T06:08:22;3.40;;;3.10;;
44165;SDS011;30476;53.468;9.826;2022-08-14T06:10:56;4.90;;;2.83;;
44165;SDS011;30476;53.468;9.826;2022-08-14T06:13:31;3.50;;;3.30;;
44165;SDS011;30476;53.468;9.826;2022-08-14T06:15:59;5.80;;;3.40;;
44165;SDS011;30476;53.468;9.826;2022-08-14T06:18:24;2.90;;;2.70;;
44165;SDS011;30476;53.468;9.826;2022-08-14T06:20:51;3.67;;;3.37;;
44165;SDS011;30476;53.468;9.826;2022-08-14T06:23:16;2.83;;;2.63;;
44165;SDS011;30476;53.468;9.826;2022-08-14T06:25:42;3.93;;;3.73;;
44165;SDS011;30476;53.468;9.826;2022-08-14T06:28:15;3.63;;;3.43;;
44165;SDS011;30476;53.468;9.826;2022-08-14T06:30:44;3.20;;;3.00;;
44165;SDS011;30476;53.468;9.826;2022-08-14T06:33:10;3.47;;;3.07;;
44165;SDS011;30476;53.468;9.826;2022-08-14T06:35:37;3.40;;;3.10;;
44165;SDS011;30476;53.468;9.826;2022-08-14T06:38:04;3.40;;;3.20;;
44165;SDS011;30476;53.468;9.826;2022-08-14T06:40:34;3.10;;;3.00;;
44165;SDS011;30476;53.468;9.826;2022-08-14T06:43:05;3.67;;;3.40;;
44165;SDS011;30476;53.468;9.826;2022-08-14T06:45:33;3.60;;;3.50;;
44165;SDS011;30476;53.468;9.826;2022-08-14T06:47:59;3.37;;;3.03;;
44165;SDS011;30476;53.468;9.826;2022-08-14T06:50:26;3.60;;;3.30;;
44165;SDS011;30476;53.468;9.826;2022-08-14T06:52:53;5.70;;;3.43;;
44165;SDS011;30476;53.468;9.826;2022-08-14T06:55:19;3.63;;;3.43;;
44165;SDS011;30476;53.468;9.826;2022-08-14T06:57:46;4.73;;;3.20;;
44165;SDS011;30476;53.468;9.826;2022-08-14T07:00:18;4.03;;;3.70;;
44165;SDS011;30476;53.468;9.826;2022-08-14T07:02:46;4.03;;;3.53;;
44165;SDS011;30476;53.468;9.826;2022-08-14T07:05:31;3.50;;;3.30;;
44165;SDS011;30476;53.468;9.826;2022-08-14T07:10:48;3.37;;;3.27;;
44165;SDS011;30476;53.468;9.826;2022-08-14T07:13:17;3.40;;;2.90;;
44165;SDS011;30476;53.468;9.826;2022-08-14T07:15:44;4.03;;;3.73;;
44165;SDS011;30476;53.468;9.826;2022-08-14T07:18:19;4.70;;;3.40;;
44165;SDS011;30476;53.468;9.826;2022-08-14T07:20:50;5.43;;;3.90;;
44165;SDS011;30476;53.468;9.826;2022-08-14T07:23:17;3.90;;;3.50;;
44165;SDS011;30476;53.468;9.826;2022-08-14T07:25:43;3.80;;;3.60;;
44165;SDS011;30476;53.468;9.826;2022-08-14T07:28:11;4.13;;;3.73;;
44165;SDS011;30476;53.468;9.826;2022-08-14T07:30:41;3.80;;;3.60;;
44165;SDS011;30476;53.468;9.826;2022-08-14T07:33:08;3.60;;;3.30;;
44165;SDS011;30476;53.468;9.826;2022-08-14T07:35:34;4.93;;;3.67;;
44165;SDS011;30476;53.468;9.826;2022-08-14T07:38:02;4.43;;;4.20;;
44165;SDS011;30476;53.468;9.826;2022-08-14T07:40:29;4.20;;;4.00;;
44165;SDS011;30476;53.468;9.826;2022-08-14T07:42:55;3.40;;;3.20;;
44165;SDS011;30476;53.468;9.826;2022-08-14T07:45:21;3.97;;;3.67;;
44165;SDS011;30476;53.468;9.826;2022-08-14T07:47:47;3.63;;;3.40;;
44165;SDS011;30476;53.468;9.826;2022-08-14T07:50:14;5.23;;;3.57;;
44165;SDS011;30476;53.468;9.826;2022-08-14T07:52:44;4.07;;;3.63;;
44165;SDS011;30476;53.468;9.826;2022-08-14T07:55:12;4.17;;;3.93;;
44165;SDS011;30476;53.468;9.826;2022-08-14T07:57:39;4.03;;;3.73;;
44165;SDS011;30476;53.468;9.826;2022-08-14T08:00:06;4.30;;;3.50;;
44165;SDS011;30476;53.468;9.826;2022-08-14T08:02:37;4.53;;;4.20;;
44165;SDS011;30476;53.468;9.826;2022-08-14T08:05:06;3.90;;;3.47;;
44165;SDS011;30476;53.468;9.826;2022-08-14T08:07:33;3.47;;;3.37;;
44165;SDS011;30476;53.468;9.826;2022-08-14T08:10:05;4.50;;;4.10;;
44165;SDS011;30476;53.468;9.826;2022-08-14T08:12:51;4.70;;;4.20;;
44165;SDS011;30476;53.468;9.826;2022-08-14T08:15:18;3.87;;;3.67;;
44165;SDS011;30476;53.468;9.826;2022-08-14T08:17:45;4.87;;;4.37;;
44165;SDS011;30476;53.468;9.826;2022-08-14T08:20:16;4.30;;;4.13;;
44165;SDS011;30476;53.468;9.826;2022-08-14T08:22:45;7.03;;;5.10;;
44165;SDS011;30476;53.468;9.826;2022-08-14T08:25:15;4.27;;;3.80;;
44165;SDS011;30476;53.468;9.826;2022-08-14T08:27:52;3.83;;;3.63;;
44165;SDS011;30476;53.468;9.826;2022-08-14T08:30:42;3.50;;;3.40;;
44165;SDS011;30476;53.468;9.826;2022-08-14T08:33:22;4.40;;;4.00;;
44165;SDS011;30476;53.468;9.826;2022-08-14T08:35:50;4.20;;;3.90;;
44165;SDS011;30476;53.468;9.826;2022-08-14T08:38:17;4.57;;;4.03;;
44165;SDS011;30476;53.468;9.826;2022-08-14T08:40:45;3.93;;;3.73;;
44165;SDS011;30476;53.468;9.826;2022-08-14T08:43:26;4.50;;;4.10;;
44165;SDS011;30476;53.468;9.826;2022-08-14T08:45:58;4.43;;;4.07;;
44165;SDS011;30476;53.468;9.826;2022-08-14T08:48:54;4.97;;;4.60;;
44165;SDS011;30476;53.468;9.826;2022-08-14T08:51:28;4.93;;;4.60;;
44165;SDS011;30476;53.468;9.826;2022-08-14T08:53:58;6.03;;;4.23;;
44165;SDS011;30476;53.468;9.826;2022-08-14T08:59:01;4.10;;;3.90;;
44165;SDS011;30476;53.468;9.826;2022-08-14T09:01:27;5.63;;;4.03;;
44165;SDS011;30476;53.468;9.826;2022-08-14T09:04:02;5.40;;;4.07;;
44165;SDS011;30476;53.468;9.826;2022-08-14T09:06:28;7.20;;;4.30;;
44165;SDS011;30476;53.468;9.826;2022-08-14T09:08:54;3.90;;;3.60;;
44165;SDS011;30476;53.468;9.826;2022-08-14T09:11:20;4.80;;;4.40;;
44165;SDS011;30476;53.468;9.826;2022-08-14T09:13:51;4.20;;;4.00;;
44165;SDS011;30476;53.468;9.826;2022-08-14T09:16:18;4.80;;;4.50;;
44165;SDS011;30476;53.468;9.826;2022-08-14T09:18:49;5.87;;;4.37;;
44165;SDS011;30476;53.468;9.826;2022-08-14T09:21:15;4.70;;;4.30;;
44165;SDS011;30476;53.468;9.826;2022-08-14T09:23:42;5.60;;;5.20;;
44165;SDS011;30476;53.468;9.826;2022-08-14T09:26:09;4.47;;;4.17;;
44165;SDS011;30476;53.468;9.826;2022-08-14T09:28:35;4.53;;;4.30;;
44165;SDS011;30476;53.468;9.826;2022-08-14T09:31:01;5.23;;;4.93;;
44165;SDS011;30476;53.468;9.826;2022-08-14T09:33:30;4.70;;;4.30;;
44165;SDS011;30476;53.468;9.826;2022-08-14T09:36:33;4.83;;;4.60;;
44165;SDS011;30476;53.468;9.826;2022-08-14T09:39:22;5.20;;;4.80;;
44165;SDS011;30476;53.468;9.826;2022-08-14T09:42:15;5.60;;;5.03;;
44165;SDS011;30476;53.468;9.826;2022-08-14T09:45:18;5.37;;;4.97;;
44165;SDS011;30476;53.468;9.826;2022-08-14T09:52:59;5.37;;;4.93;;
44165;SDS011;30476;53.468;9.826;2022-08-14T09:55:28;5.90;;;5.40;;
44165;SDS011;30476;53.468;9.826;2022-08-14T10:03:24;6.60;;;5.90;;
44165;SDS011;30476;53.468;9.826;2022-08-14T10:06:08;5.63;;;5.23;;
44165;SDS011;30476;53.468;9.826;2022-08-14T10:11:22;5.80;;;5.30;;
44165;SDS011;30476;53.468;9.826;2022-08-14T10:13:52;4.93;;;4.70;;
44165;SDS011;30476;53.468;9.826;2022-08-14T10:16:21;5.37;;;5.00;;
44165;SDS011;30476;53.468;9.826;2022-08-14T10:19:00;5.67;;;5.27;;
44165;SDS011;30476;53.468;9.826;2022-08-14T10:21:30;6.33;;;5.80;;
44165;SDS011;30476;53.468;9.826;2022-08-14T10:23:57;6.50;;;6.10;;
44165;SDS011;30476;53.468;9.826;2022-08-14T10:26:23;5.80;;;5.60;;
44165;SDS011;30476;53.468;9.826;2022-08-14T10:28:49;4.90;;;4.63;;
44165;SDS011;30476;53.468;9.826;2022-08-14T10:36:32;6.40;;;6.00;;
44165;SDS011;30476;53.468;9.826;2022-08-14T10:39:04;6.13;;;5.73;;
44165;SDS011;30476;53.468;9.826;2022-08-14T10:41:33;5.53;;;5.13;;
44165;SDS011;30476;53.468;9.826;2022-08-14T10:44:05;6.53;;;5.93;;
44165;SDS011;30476;53.468;9.826;2022-08-14T10:46:51;5.33;;;5.03;;
44165;SDS011;30476;53.468;9.826;2022-08-14T10:49:25;6.60;;;5.60;;
44165;SDS011;30476;53.468;9.826;2022-08-14T10:51:59;6.00;;;5.50;;
44165;SDS011;30476;53.468;9.826;2022-08-14T10:54:37;5.80;;;5.50;;
44165;SDS011;30476;53.468;9.826;2022-08-14T10:57:26;6.90;;;6.50;;
44165;SDS011;30476;53.468;9.826;2022-08-14T10:59:56;8.10;;;7.60;;
44165;SDS011;30476;53.468;9.826;2022-08-14T11:02:28;8.97;;;8.17;;
44165;SDS011;30476;53.468;9.826;2022-08-14T11:05:02;10.37;;;9.23;;
44165;SDS011;30476;53.468;9.826;2022-08-14T11:07:29;9.93;;;8.40;;
44165;SDS011;30476;53.468;9.826;2022-08-14T11:09:56;6.60;;;6.20;;
44165;SDS011;30476;53.468;9.826;2022-08-14T11:12:24;6.37;;;6.07;;
44165;SDS011;30476;53.468;9.826;2022-08-14T11:17:17;5.93;;;5.63;;
44165;SDS011;30476;53.468;9.826;2022-08-14T11:19:43;5.67;;;5.33;;
44165;SDS011;30476;53.468;9.826;2022-08-14T11:22:09;5.90;;;5.50;;
44165;SDS011;30476;53.468;9.826;2022-08-14T11:24:36;6.87;;;6.37;;
44165;SDS011;30476;53.468;9.826;2022-08-14T11:27:06;6.63;;;6.10;;
44165;SDS011;30476;53.468;9.826;2022-08-14T11:29:33;6.17;;;5.70;;
44165;SDS011;30476;53.468;9.826;2022-08-14T11:32:01;7.27;;;6.63;;
44165;SDS011;30476;53.468;9.826;2022-08-14T11:34:28;6.43;;;6.10;;
44165;SDS011;30476;53.468;9.826;2022-08-14T11:36:54;6.13;;;5.87;;
44165;SDS011;30476;53.468;9.826;2022-08-14T11:39:21;7.07;;;6.47;;
44165;SDS011;30476;53.468;9.826;2022-08-14T11:41:47;6.50;;;6.10;;
44165;SDS011;30476;53.468;9.826;2022-08-14T11:44:13;6.33;;;5.90;;
44165;SDS011;30476;53.468;9.826;2022-08-14T11:46:40;6.80;;;6.37;;
44165;SDS011;30476;53.468;9.826;2022-08-14T11:49:07;6.47;;;6.00;;
44165;SDS011;30476;53.468;9.826;2022-08-14T11:51:33;6.23;;;5.93;;
44165;SDS011;30476;53.468;9.826;2022-08-14T11:54:02;6.93;;;6.53;;
44165;SDS011;30476;53.468;9.826;2022-08-14T11:56:36;6.57;;;6.17;;
44165;SDS011;30476;53.468;9.826;2022-08-14T11:59:05;7.23;;;6.67;;
44165;SDS011;30476;53.468;9.826;2022-08-14T12:01:33;6.50;;;6.10;;
44165;SDS011;30476;53.468;9.826;2022-08-14T12:04:07;7.37;;;6.50;;
44165;SDS011;30476;53.468;9.826;2022-08-14T12:06:48;6.53;;;6.23;;
44165;SDS011;30476;53.468;9.826;2022-08-14T12:12:17;7.20;;;6.80;;
44165;SDS011;30476;53.468;9.826;2022-08-14T12:14:51;6.70;;;6.20;;
44165;SDS011;30476;53.468;9.826;2022-08-14T12:17:27;7.10;;;6.43;;
44165;SDS011;30476;53.468;9.826;2022-08-14T12:19:59;6.63;;;6.23;;
44165;SDS011;30476;53.468;9.826;2022-08-14T12:25:04;7.83;;;7.23;;
44165;SDS011;30476;53.468;9.826;2022-08-14T12:32:58;7.37;;;6.77;;
44165;SDS011;30476;53.468;9.826;2022-08-14T12:35:42;7.27;;;6.77;;
44165;SDS011;30476;53.468;9.826;2022-08-14T12:38:09;7.13;;;6.83;;
44165;SDS011;30476;53.468;9.826;2022-08-14T12:40:46;7.27;;;6.90;;
44165;SDS011;30476;53.468;9.826;2022-08-14T12:43:16;7.50;;;7.00;;
44165;SDS011;30476;53.468;9.826;2022-08-14T12:45:49;7.80;;;7.17;;
44165;SDS011;30476;53.468;9.826;2022-08-14T12:48:19;7.37;;;6.97;;
44165;SDS011;30476;53.468;9.826;2022-08-14T12:50:46;7.40;;;6.80;;
44165;SDS011;30476;53.468;9.826;2022-08-14T12:53:16;7.43;;;7.03;;
44165;SDS011;30476;53.468;9.826;2022-08-14T12:55:43;7.20;;;6.77;;
44165;SDS011;30476;53.468;9.826;2022-08-14T12:58:10;7.33;;;6.83;;
44165;SDS011;30476;53.468;9.826;2022-08-14T13:00:37;7.93;;;7.43;;
44165;SDS011;30476;53.468;9.826;2022-08-14T13:03:25;7.00;;;6.60;;
44165;SDS011;30476;53.468;9.826;2022-08-14T13:05:52;7.27;;;6.67;;
44165;SDS011;30476;53.468;9.826;2022-08-14T13:08:19;7.40;;;6.90;;
44165;SDS011;30476;53.468;9.826;2022-08-14T13:10:46;7.47;;;6.80;;
44165;SDS011;30476;53.468;9.826;2022-08-14T13:13:14;6.93;;;6.63;;
44165;SDS011;30476;53.468;9.826;2022-08-14T13:15:45;6.73;;;6.43;;
44165;SDS011;30476;53.468;9.826;2022-08-14T13:18:17;6.60;;;6.20;;
44165;SDS011;30476;53.468;9.826;2022-08-14T13:20:45;6.80;;;6.33;;
44165;SDS011;30476;53.468;9.826;2022-08-14T13:23:12;6.20;;;6.00;;
44165;SDS011;30476;53.468;9.826;2022-08-14T13:25:39;6.73;;;6.17;;
44165;SDS011;30476;53.468;9.826;2022-08-14T13:28:07;6.90;;;6.50;;
44165;SDS011;30476;53.468;9.826;2022-08-14T13:30:35;7.27;;;6.77;;
44165;SDS011;30476;53.468;9.826;2022-08-14T13:33:04;7.37;;;6.90;;
44165;SDS011;30476;53.468;9.826;2022-08-14T13:35:31;6.93;;;6.50;;
44165;SDS011;30476;53.468;9.826;2022-08-14T13:37:57;7.33;;;6.93;;
44165;SDS011;30476;53.468;9.826;2022-08-14T13:40:23;7.80;;;7.40;;
44165;SDS011;30476;53.468;9.826;2022-08-14T13:42:49;7.33;;;6.87;;
44165;SDS011;30476;53.468;9.826;2022-08-14T13:45:16;7.13;;;6.73;;
44165;SDS011;30476;53.468;9.826;2022-08-14T13:47:46;7.33;;;6.90;;
44165;SDS011;30476;53.468;9.826;2022-08-14T13:50:13;6.57;;;6.23;;
44165;SDS011;30476;53.468;9.826;2022-08-14T13:52:44;7.30;;;6.90;;
44165;SDS011;30476;53.468;9.826;2022-08-14T13:55:22;7.30;;;6.90;;
44165;SDS011;30476;53.468;9.826;2022-08-14T13:57:51;11.60;;;6.57;;
44165;SDS011;30476;53.468;9.826;2022-08-14T14:00:24;7.10;;;6.73;;
44165;SDS011;30476;53.468;9.826;2022-08-14T14:02:50;7.57;;;6.90;;
44165;SDS011;30476;53.468;9.826;2022-08-14T14:05:18;7.50;;;7.10;;
44165;SDS011;30476;53.468;9.826;2022-08-14T14:07:46;6.93;;;6.63;;
44165;SDS011;30476;53.468;9.826;2022-08-14T14:10:15;6.83;;;6.33;;
44165;SDS011;30476;53.468;9.826;2022-08-14T14:12:42;8.13;;;7.43;;
44165;SDS011;30476;53.468;9.826;2022-08-14T14:15:12;7.27;;;6.80;;
44165;SDS011;30476;53.468;9.826;2022-08-14T14:17:40;7.37;;;6.80;;
44165;SDS011;30476;53.468;9.826;2022-08-14T14:20:08;7.33;;;6.70;;
44165;SDS011;30476;53.468;9.826;2022-08-14T14:22:39;6.57;;;6.27;;
44165;SDS011;30476;53.468;9.826;2022-08-14T14:25:07;7.33;;;6.83;;
44165;SDS011;30476;53.468;9.826;2022-08-14T14:27:42;7.30;;;6.70;;
44165;SDS011;30476;53.468;9.826;2022-08-14T14:30:10;7.23;;;6.83;;
44165;SDS011;30476;53.468;9.826;2022-08-14T14:32:39;7.90;;;7.50;;
44165;SDS011;30476;53.468;9.826;2022-08-14T14:35:08;7.47;;;6.90;;
44165;SDS011;30476;53.468;9.826;2022-08-14T14:37:39;6.40;;;6.10;;
44165;SDS011;30476;53.468;9.826;2022-08-14T14:40:07;6.70;;;6.20;;
44165;SDS011;30476;53.468;9.826;2022-08-14T14:42:36;7.70;;;7.10;;
44165;SDS011;30476;53.468;9.826;2022-08-14T14:45:12;7.20;;;6.60;;
44165;SDS011;30476;53.468;9.826;2022-08-14T14:47:44;7.40;;;7.00;;
44165;SDS011;30476;53.468;9.826;2022-08-14T14:50:12;7.17;;;6.77;;
44165;SDS011;30476;53.468;9.826;2022-08-14T14:52:38;7.50;;;7.10;;
44165;SDS011;30476;53.468;9.826;2022-08-14T14:55:05;7.87;;;7.23;;
44165;SDS011;30476;53.468;9.826;2022-08-14T14:57:36;7.10;;;6.80;;
44165;SDS011;30476;53.468;9.826;2022-08-14T15:00:07;7.10;;;6.70;;
44165;SDS011;30476;53.468;9.826;2022-08-14T15:02:37;8.33;;;7.67;;
44165;SDS011;30476;53.468;9.826;2022-08-14T15:05:05;8.07;;;7.47;;
44165;SDS011;30476;53.468;9.826;2022-08-14T15:07:32;7.90;;;7.27;;
44165;SDS011;30476;53.468;9.826;2022-08-14T15:09:59;7.87;;;7.27;;
44165;SDS011;30476;53.468;9.826;2022-08-14T15:12:26;7.23;;;6.80;;
44165;SDS011;30476;53.468;9.826;2022-08-14T15:14:51;7.37;;;6.87;;
44165;SDS011;30476;53.468;9.826;2022-08-14T15:17:17;8.10;;;7.60;;
44165;SDS011;30476;53.468;9.826;2022-08-14T15:19:45;7.83;;;7.40;;
44165;SDS011;30476;53.468;9.826;2022-08-14T15:22:12;7.10;;;6.60;;
44165;SDS011;30476;53.468;9.826;2022-08-14T15:24:39;8.10;;;7.50;;
44165;SDS011;30476;53.468;9.826;2022-08-14T15:27:04;7.90;;;7.30;;
44165;SDS011;30476;53.468;9.826;2022-08-14T15:29:31;7.67;;;7.20;;
44165;SDS011;30476;53.468;9.826;2022-08-14T15:32:03;7.60;;;7.07;;
44165;SDS011;30476;53.468;9.826;2022-08-14T15:34:30;7.57;;;7.07;;
44165;SDS011;30476;53.468;9.826;2022-08-14T15:36:56;7.53;;;7.10;;
44165;SDS011;30476;53.468;9.826;2022-08-14T15:39:22;7.57;;;7.17;;
44165;SDS011;30476;53.468;9.826;2022-08-14T15:41:48;8.33;;;7.83;;